Terminal Aerodrome Forecast
Issued by NWS

Home | Current Version | Previous Version | Text Only | Print | Product List | Glossary On
Versions: 1 2 3 4 5 6 7 8 9 10 11 12 13
000
FTUS42 TJSJ 251140
TAFKPK
TAF
TKPK 251140Z 2512/2612 00000KT P6SM FEW019
     FM251300 16008KT P6SM VCSH SCT022
     FM252200 15006KT P6SM FEW040 BKN070
     FM260800 15002KT P6SM FEW030
      AMD NOT SKED 2602/2611=

USA.gov is the U.S. government's official web portal to all federal, state and local government web resources and services.